Terminal Aerodrome Forecast
Issued by NWS Jackson, MS

Home | Current Version | Previous Version | Text Only | Print | Product List | Glossary On
Versions: 1 2 3 4 5 6 7 8 9 10 11 12 13 14 15
000
FTUS44 KJAN 210500
TAFMEI
TAF
KMEI 210533Z 2106/2206 VRB03KT P6SM FEW250
     FM211130 16003KT 4SM BR SCT005
     FM211330 18006KT P6SM SCT030 SCT250
     FM211900 20007KT P6SM SCT050 BKN120
     FM220000 18003KT P6SM FEW050 SCT120=

USA.gov is the U.S. government's official web portal to all federal, state and local government web resources and services.